sensor_id;sensor_type;location;lat;lon;timestamp;P1;durP1;ratioP1;P2;durP2;ratioP2
15246;SDS011;7726;48.820;9.248;2023-06-14T00:00:54;3.97;;;3.58;;
15246;SDS011;7726;48.820;9.248;2023-06-14T00:03:22;5.07;;;4.18;;
15246;SDS011;7726;48.820;9.248;2023-06-14T00:05:49;3.72;;;3.42;;
15246;SDS011;7726;48.820;9.248;2023-06-14T00:08:16;3.95;;;3.65;;
15246;SDS011;7726;48.820;9.248;2023-06-14T00:10:46;4.60;;;3.97;;
15246;SDS011;7726;48.820;9.248;2023-06-14T00:13:13;4.07;;;3.65;;
15246;SDS011;7726;48.820;9.248;2023-06-14T00:15:42;4.25;;;3.63;;
15246;SDS011;7726;48.820;9.248;2023-06-14T00:18:09;4.28;;;3.88;;
15246;SDS011;7726;48.820;9.248;2023-06-14T00:20:37;7.38;;;4.22;;
15246;SDS011;7726;48.820;9.248;2023-06-14T00:23:04;4.60;;;4.10;;
15246;SDS011;7726;48.820;9.248;2023-06-14T00:25:31;5.18;;;4.68;;
15246;SDS011;7726;48.820;9.248;2023-06-14T00:27:58;6.53;;;3.80;;
15246;SDS011;7726;48.820;9.248;2023-06-14T00:30:25;4.22;;;3.83;;
15246;SDS011;7726;48.820;9.248;2023-06-14T00:32:56;4.70;;;4.03;;
15246;SDS011;7726;48.820;9.248;2023-06-14T00:35:24;5.03;;;3.65;;
15246;SDS011;7726;48.820;9.248;2023-06-14T00:37:51;5.18;;;3.67;;
15246;SDS011;7726;48.820;9.248;2023-06-14T00:40:19;4.38;;;3.92;;
15246;SDS011;7726;48.820;9.248;2023-06-14T00:42:47;6.20;;;3.95;;
15246;SDS011;7726;48.820;9.248;2023-06-14T00:45:14;7.00;;;4.40;;
15246;SDS011;7726;48.820;9.248;2023-06-14T00:47:42;4.53;;;4.07;;
15246;SDS011;7726;48.820;9.248;2023-06-14T00:50:11;6.47;;;4.40;;
15246;SDS011;7726;48.820;9.248;2023-06-14T00:52:39;6.40;;;4.72;;
15246;SDS011;7726;48.820;9.248;2023-06-14T00:55:06;5.20;;;4.10;;
15246;SDS011;7726;48.820;9.248;2023-06-14T00:57:33;5.85;;;4.38;;
15246;SDS011;7726;48.820;9.248;2023-06-14T01:00:03;5.35;;;4.10;;
15246;SDS011;7726;48.820;9.248;2023-06-14T01:02:33;6.70;;;4.22;;
15246;SDS011;7726;48.820;9.248;2023-06-14T01:05:01;8.07;;;4.65;;
15246;SDS011;7726;48.820;9.248;2023-06-14T01:07:35;4.32;;;3.92;;
15246;SDS011;7726;48.820;9.248;2023-06-14T01:10:14;7.78;;;3.95;;
15246;SDS011;7726;48.820;9.248;2023-06-14T01:12:47;5.15;;;4.10;;
15246;SDS011;7726;48.820;9.248;2023-06-14T01:15:17;4.18;;;3.72;;
15246;SDS011;7726;48.820;9.248;2023-06-14T01:17:44;4.40;;;4.00;;
15246;SDS011;7726;48.820;9.248;2023-06-14T01:20:12;4.00;;;3.70;;
15246;SDS011;7726;48.820;9.248;2023-06-14T01:22:47;4.70;;;4.30;;
15246;SDS011;7726;48.820;9.248;2023-06-14T01:25:14;4.80;;;3.92;;
15246;SDS011;7726;48.820;9.248;2023-06-14T01:27:41;4.22;;;3.83;;
15246;SDS011;7726;48.820;9.248;2023-06-14T01:30:09;6.45;;;4.55;;
15246;SDS011;7726;48.820;9.248;2023-06-14T01:32:36;4.88;;;4.30;;
15246;SDS011;7726;48.820;9.248;2023-06-14T01:35:04;5.43;;;3.95;;
15246;SDS011;7726;48.820;9.248;2023-06-14T01:37:32;5.25;;;4.53;;
15246;SDS011;7726;48.820;9.248;2023-06-14T01:40:00;5.40;;;4.03;;
15246;SDS011;7726;48.820;9.248;2023-06-14T01:42:28;6.30;;;4.53;;
15246;SDS011;7726;48.820;9.248;2023-06-14T01:44:57;4.43;;;4.03;;
15246;SDS011;7726;48.820;9.248;2023-06-14T01:47:25;4.93;;;3.93;;
15246;SDS011;7726;48.820;9.248;2023-06-14T01:49:52;5.95;;;3.97;;
15246;SDS011;7726;48.820;9.248;2023-06-14T01:52:19;4.80;;;4.07;;
15246;SDS011;7726;48.820;9.248;2023-06-14T01:54:47;6.43;;;4.45;;
15246;SDS011;7726;48.820;9.248;2023-06-14T01:57:16;5.25;;;4.03;;
15246;SDS011;7726;48.820;9.248;2023-06-14T01:59:43;4.63;;;4.05;;
15246;SDS011;7726;48.820;9.248;2023-06-14T02:02:13;7.90;;;4.53;;
15246;SDS011;7726;48.820;9.248;2023-06-14T02:04:41;7.07;;;4.13;;
15246;SDS011;7726;48.820;9.248;2023-06-14T02:07:08;6.28;;;3.83;;
15246;SDS011;7726;48.820;9.248;2023-06-14T02:09:35;6.63;;;5.00;;
15246;SDS011;7726;48.820;9.248;2023-06-14T02:12:02;5.15;;;4.65;;
15246;SDS011;7726;48.820;9.248;2023-06-14T02:14:31;4.88;;;4.35;;
15246;SDS011;7726;48.820;9.248;2023-06-14T02:16:58;4.95;;;4.35;;
15246;SDS011;7726;48.820;9.248;2023-06-14T02:19:26;7.25;;;4.75;;
15246;SDS011;7726;48.820;9.248;2023-06-14T02:21:53;5.10;;;3.85;;
15246;SDS011;7726;48.820;9.248;2023-06-14T02:24:20;4.43;;;4.03;;
15246;SDS011;7726;48.820;9.248;2023-06-14T02:26:48;5.65;;;4.30;;
15246;SDS011;7726;48.820;9.248;2023-06-14T02:29:15;6.07;;;4.20;;
15246;SDS011;7726;48.820;9.248;2023-06-14T02:31:44;4.40;;;3.85;;
15246;SDS011;7726;48.820;9.248;2023-06-14T02:34:12;4.78;;;4.28;;
15246;SDS011;7726;48.820;9.248;2023-06-14T02:36:39;5.38;;;4.00;;
15246;SDS011;7726;48.820;9.248;2023-06-14T02:39:06;4.32;;;3.92;;
15246;SDS011;7726;48.820;9.248;2023-06-14T02:41:35;5.13;;;4.50;;
15246;SDS011;7726;48.820;9.248;2023-06-14T02:44:02;6.28;;;4.13;;
15246;SDS011;7726;48.820;9.248;2023-06-14T02:46:30;5.10;;;4.53;;
15246;SDS011;7726;48.820;9.248;2023-06-14T02:48:58;5.63;;;4.85;;
15246;SDS011;7726;48.820;9.248;2023-06-14T02:51:25;5.60;;;4.57;;
15246;SDS011;7726;48.820;9.248;2023-06-14T02:53:52;6.20;;;5.00;;
15246;SDS011;7726;48.820;9.248;2023-06-14T02:56:20;6.80;;;4.70;;
15246;SDS011;7726;48.820;9.248;2023-06-14T02:58:47;8.53;;;4.93;;
15246;SDS011;7726;48.820;9.248;2023-06-14T03:01:15;5.22;;;4.68;;
15246;SDS011;7726;48.820;9.248;2023-06-14T03:03:43;5.95;;;5.13;;
15246;SDS011;7726;48.820;9.248;2023-06-14T03:06:11;4.68;;;4.28;;
15246;SDS011;7726;48.820;9.248;2023-06-14T03:08:39;5.50;;;5.00;;
15246;SDS011;7726;48.820;9.248;2023-06-14T03:11:06;4.88;;;4.28;;
15246;SDS011;7726;48.820;9.248;2023-06-14T03:13:34;5.77;;;4.93;;
15246;SDS011;7726;48.820;9.248;2023-06-14T03:16:02;6.47;;;4.93;;
15246;SDS011;7726;48.820;9.248;2023-06-14T03:18:29;4.40;;;4.05;;
15246;SDS011;7726;48.820;9.248;2023-06-14T03:21:00;5.10;;;4.60;;
15246;SDS011;7726;48.820;9.248;2023-06-14T03:23:29;5.10;;;4.57;;
15246;SDS011;7726;48.820;9.248;2023-06-14T03:25:56;6.68;;;4.70;;
15246;SDS011;7726;48.820;9.248;2023-06-14T03:28:23;6.63;;;4.38;;
15246;SDS011;7726;48.820;9.248;2023-06-14T03:30:50;4.47;;;3.80;;
15246;SDS011;7726;48.820;9.248;2023-06-14T03:33:18;5.00;;;4.55;;
15246;SDS011;7726;48.820;9.248;2023-06-14T03:35:46;6.85;;;4.88;;
15246;SDS011;7726;48.820;9.248;2023-06-14T03:38:13;7.07;;;4.80;;
15246;SDS011;7726;48.820;9.248;2023-06-14T03:40:41;5.03;;;4.30;;
15246;SDS011;7726;48.820;9.248;2023-06-14T03:43:09;7.03;;;4.80;;
15246;SDS011;7726;48.820;9.248;2023-06-14T03:45:36;6.38;;;4.70;;
15246;SDS011;7726;48.820;9.248;2023-06-14T03:48:04;7.20;;;4.80;;
15246;SDS011;7726;48.820;9.248;2023-06-14T03:50:33;7.13;;;4.27;;
15246;SDS011;7726;48.820;9.248;2023-06-14T03:53:03;5.97;;;4.75;;
15246;SDS011;7726;48.820;9.248;2023-06-14T03:55:30;5.40;;;4.77;;
15246;SDS011;7726;48.820;9.248;2023-06-14T03:57:59;5.80;;;4.70;;
15246;SDS011;7726;48.820;9.248;2023-06-14T04:00:26;7.88;;;4.30;;
15246;SDS011;7726;48.820;9.248;2023-06-14T04:02:53;7.57;;;5.18;;
15246;SDS011;7726;48.820;9.248;2023-06-14T04:05:20;5.13;;;4.55;;
15246;SDS011;7726;48.820;9.248;2023-06-14T04:07:51;4.97;;;4.47;;
15246;SDS011;7726;48.820;9.248;2023-06-14T04:10:20;5.47;;;4.53;;
15246;SDS011;7726;48.820;9.248;2023-06-14T04:12:48;8.45;;;5.07;;
15246;SDS011;7726;48.820;9.248;2023-06-14T04:15:17;5.00;;;4.50;;
15246;SDS011;7726;48.820;9.248;2023-06-14T04:17:44;8.63;;;4.60;;
15246;SDS011;7726;48.820;9.248;2023-06-14T04:20:11;6.40;;;4.65;;
15246;SDS011;7726;48.820;9.248;2023-06-14T04:22:38;4.53;;;4.13;;
15246;SDS011;7726;48.820;9.248;2023-06-14T04:25:06;6.18;;;4.70;;
15246;SDS011;7726;48.820;9.248;2023-06-14T04:27:33;5.72;;;4.18;;
15246;SDS011;7726;48.820;9.248;2023-06-14T04:30:01;5.35;;;4.40;;
15246;SDS011;7726;48.820;9.248;2023-06-14T04:32:30;7.43;;;4.93;;
15246;SDS011;7726;48.820;9.248;2023-06-14T04:34:58;7.68;;;4.70;;
15246;SDS011;7726;48.820;9.248;2023-06-14T04:37:27;6.45;;;4.40;;
15246;SDS011;7726;48.820;9.248;2023-06-14T04:39:55;8.00;;;4.72;;
15246;SDS011;7726;48.820;9.248;2023-06-14T04:42:22;5.55;;;4.55;;
15246;SDS011;7726;48.820;9.248;2023-06-14T04:44:55;4.60;;;4.20;;
15246;SDS011;7726;48.820;9.248;2023-06-14T04:47:22;6.53;;;4.72;;
15246;SDS011;7726;48.820;9.248;2023-06-14T04:49:56;5.90;;;4.80;;
15246;SDS011;7726;48.820;9.248;2023-06-14T04:52:25;5.40;;;4.88;;
15246;SDS011;7726;48.820;9.248;2023-06-14T04:54:54;6.57;;;5.20;;
15246;SDS011;7726;48.820;9.248;2023-06-14T04:57:21;6.07;;;4.72;;
15246;SDS011;7726;48.820;9.248;2023-06-14T04:59:50;8.30;;;5.25;;
15246;SDS011;7726;48.820;9.248;2023-06-14T05:02:20;7.05;;;5.18;;
15246;SDS011;7726;48.820;9.248;2023-06-14T05:04:47;7.38;;;4.97;;
15246;SDS011;7726;48.820;9.248;2023-06-14T05:07:16;6.05;;;5.00;;
15246;SDS011;7726;48.820;9.248;2023-06-14T05:09:44;7.70;;;5.20;;
15246;SDS011;7726;48.820;9.248;2023-06-14T05:12:11;7.63;;;5.10;;
15246;SDS011;7726;48.820;9.248;2023-06-14T05:14:38;6.07;;;5.45;;
15246;SDS011;7726;48.820;9.248;2023-06-14T05:17:05;6.60;;;4.93;;
15246;SDS011;7726;48.820;9.248;2023-06-14T05:19:33;5.88;;;4.80;;
15246;SDS011;7726;48.820;9.248;2023-06-14T05:22:00;6.95;;;4.55;;
15246;SDS011;7726;48.820;9.248;2023-06-14T05:24:30;6.13;;;4.80;;
15246;SDS011;7726;48.820;9.248;2023-06-14T05:26:57;6.55;;;4.78;;
15246;SDS011;7726;48.820;9.248;2023-06-14T05:29:24;6.80;;;4.72;;
15246;SDS011;7726;48.820;9.248;2023-06-14T05:31:52;7.72;;;5.35;;
15246;SDS011;7726;48.820;9.248;2023-06-14T05:34:20;5.13;;;4.40;;
15246;SDS011;7726;48.820;9.248;2023-06-14T05:36:47;6.50;;;4.60;;
15246;SDS011;7726;48.820;9.248;2023-06-14T05:39:14;6.65;;;4.50;;
15246;SDS011;7726;48.820;9.248;2023-06-14T05:41:43;6.20;;;4.63;;
15246;SDS011;7726;48.820;9.248;2023-06-14T05:44:10;5.65;;;5.13;;
15246;SDS011;7726;48.820;9.248;2023-06-14T05:46:37;6.25;;;4.88;;
15246;SDS011;7726;48.820;9.248;2023-06-14T05:49:05;9.48;;;5.00;;
15246;SDS011;7726;48.820;9.248;2023-06-14T05:51:32;5.45;;;4.82;;
15246;SDS011;7726;48.820;9.248;2023-06-14T05:53:59;9.60;;;5.22;;
15246;SDS011;7726;48.820;9.248;2023-06-14T05:56:27;5.32;;;4.57;;
15246;SDS011;7726;48.820;9.248;2023-06-14T05:58:56;9.48;;;5.57;;
15246;SDS011;7726;48.820;9.248;2023-06-14T06:01:23;9.15;;;5.63;;
15246;SDS011;7726;48.820;9.248;2023-06-14T06:03:50;6.80;;;4.65;;
15246;SDS011;7726;48.820;9.248;2023-06-14T06:06:17;5.45;;;4.90;;
15246;SDS011;7726;48.820;9.248;2023-06-14T06:08:44;4.80;;;4.40;;
15246;SDS011;7726;48.820;9.248;2023-06-14T06:11:11;5.93;;;4.68;;
15246;SDS011;7726;48.820;9.248;2023-06-14T06:13:39;8.90;;;4.55;;
15246;SDS011;7726;48.820;9.248;2023-06-14T06:16:07;4.85;;;4.35;;
15246;SDS011;7726;48.820;9.248;2023-06-14T06:18:35;7.63;;;4.95;;
15246;SDS011;7726;48.820;9.248;2023-06-14T06:21:03;7.72;;;4.55;;
15246;SDS011;7726;48.820;9.248;2023-06-14T06:23:30;4.72;;;4.32;;
15246;SDS011;7726;48.820;9.248;2023-06-14T06:25:57;8.35;;;4.45;;
15246;SDS011;7726;48.820;9.248;2023-06-14T06:28:24;6.20;;;4.90;;
15246;SDS011;7726;48.820;9.248;2023-06-14T06:30:52;6.50;;;4.47;;
15246;SDS011;7726;48.820;9.248;2023-06-14T06:33:21;5.20;;;4.70;;
15246;SDS011;7726;48.820;9.248;2023-06-14T06:35:48;5.13;;;4.50;;
15246;SDS011;7726;48.820;9.248;2023-06-14T06:38:15;7.18;;;4.70;;
15246;SDS011;7726;48.820;9.248;2023-06-14T06:40:43;7.65;;;4.68;;
15246;SDS011;7726;48.820;9.248;2023-06-14T06:43:10;5.88;;;4.53;;
15246;SDS011;7726;48.820;9.248;2023-06-14T06:45:39;5.45;;;3.95;;
15246;SDS011;7726;48.820;9.248;2023-06-14T06:48:06;4.10;;;3.70;;
15246;SDS011;7726;48.820;9.248;2023-06-14T06:50:36;7.03;;;4.22;;
15246;SDS011;7726;48.820;9.248;2023-06-14T06:53:03;5.80;;;4.38;;
15246;SDS011;7726;48.820;9.248;2023-06-14T06:55:31;5.45;;;4.18;;
15246;SDS011;7726;48.820;9.248;2023-06-14T06:57:58;4.60;;;4.18;;
15246;SDS011;7726;48.820;9.248;2023-06-14T07:00:26;4.28;;;3.88;;
15246;SDS011;7726;48.820;9.248;2023-06-14T07:02:53;4.88;;;4.07;;
15246;SDS011;7726;48.820;9.248;2023-06-14T07:05:22;5.25;;;4.10;;
15246;SDS011;7726;48.820;9.248;2023-06-14T07:07:50;5.15;;;4.00;;
15246;SDS011;7726;48.820;9.248;2023-06-14T07:10:17;5.78;;;4.00;;
15246;SDS011;7726;48.820;9.248;2023-06-14T07:12:45;4.63;;;4.22;;
15246;SDS011;7726;48.820;9.248;2023-06-14T07:15:12;4.88;;;4.47;;
15246;SDS011;7726;48.820;9.248;2023-06-14T07:17:39;5.07;;;4.30;;
15246;SDS011;7726;48.820;9.248;2023-06-14T07:20:07;6.20;;;4.28;;
15246;SDS011;7726;48.820;9.248;2023-06-14T07:22:36;7.47;;;4.60;;
15246;SDS011;7726;48.820;9.248;2023-06-14T07:25:05;5.10;;;4.63;;
15246;SDS011;7726;48.820;9.248;2023-06-14T07:27:33;5.57;;;3.88;;
15246;SDS011;7726;48.820;9.248;2023-06-14T07:30:00;5.20;;;4.20;;
15246;SDS011;7726;48.820;9.248;2023-06-14T07:32:27;4.47;;;4.07;;
15246;SDS011;7726;48.820;9.248;2023-06-14T07:34:54;9.60;;;4.25;;
15246;SDS011;7726;48.820;9.248;2023-06-14T07:37:21;9.70;;;4.82;;
15246;SDS011;7726;48.820;9.248;2023-06-14T07:39:49;5.47;;;4.30;;
15246;SDS011;7726;48.820;9.248;2023-06-14T07:42:17;4.40;;;4.00;;
15246;SDS011;7726;48.820;9.248;2023-06-14T07:44:45;6.22;;;3.67;;
15246;SDS011;7726;48.820;9.248;2023-06-14T07:47:12;6.50;;;4.47;;
15246;SDS011;7726;48.820;9.248;2023-06-14T07:49:39;7.18;;;4.10;;
15246;SDS011;7726;48.820;9.248;2023-06-14T07:52:06;5.22;;;3.95;;
15246;SDS011;7726;48.820;9.248;2023-06-14T07:54:33;5.75;;;4.20;;
15246;SDS011;7726;48.820;9.248;2023-06-14T07:57:01;5.68;;;4.15;;
15246;SDS011;7726;48.820;9.248;2023-06-14T07:59:29;4.60;;;4.10;;
15246;SDS011;7726;48.820;9.248;2023-06-14T08:01:56;6.57;;;3.80;;
15246;SDS011;7726;48.820;9.248;2023-06-14T08:04:23;4.63;;;3.90;;
15246;SDS011;7726;48.820;9.248;2023-06-14T08:06:51;4.80;;;4.40;;
15246;SDS011;7726;48.820;9.248;2023-06-14T08:09:18;5.13;;;4.20;;
15246;SDS011;7726;48.820;9.248;2023-06-14T08:11:46;5.15;;;3.67;;
15246;SDS011;7726;48.820;9.248;2023-06-14T08:14:13;5.50;;;4.13;;
15246;SDS011;7726;48.820;9.248;2023-06-14T08:16:41;4.32;;;3.63;;
15246;SDS011;7726;48.820;9.248;2023-06-14T08:19:08;5.90;;;4.20;;
15246;SDS011;7726;48.820;9.248;2023-06-14T08:21:36;4.63;;;3.92;;
15246;SDS011;7726;48.820;9.248;2023-06-14T08:24:03;5.03;;;4.50;;
15246;SDS011;7726;48.820;9.248;2023-06-14T08:26:30;6.18;;;4.18;;
15246;SDS011;7726;48.820;9.248;2023-06-14T08:28:57;4.68;;;3.97;;
15246;SDS011;7726;48.820;9.248;2023-06-14T08:31:25;4.10;;;3.70;;
15246;SDS011;7726;48.820;9.248;2023-06-14T08:33:54;4.28;;;3.88;;
15246;SDS011;7726;48.820;9.248;2023-06-14T08:36:21;4.72;;;3.90;;
15246;SDS011;7726;48.820;9.248;2023-06-14T08:38:48;4.90;;;4.20;;
15246;SDS011;7726;48.820;9.248;2023-06-14T08:41:20;5.55;;;3.75;;
15246;SDS011;7726;48.820;9.248;2023-06-14T08:43:47;5.10;;;3.60;;
15246;SDS011;7726;48.820;9.248;2023-06-14T08:46:14;5.30;;;3.42;;
15246;SDS011;7726;48.820;9.248;2023-06-14T08:48:44;4.75;;;3.85;;
15246;SDS011;7726;48.820;9.248;2023-06-14T08:51:14;4.10;;;3.58;;
15246;SDS011;7726;48.820;9.248;2023-06-14T08:53:42;5.22;;;4.10;;
15246;SDS011;7726;48.820;9.248;2023-06-14T08:56:10;4.07;;;3.67;;
15246;SDS011;7726;48.820;9.248;2023-06-14T08:58:39;7.18;;;3.80;;
15246;SDS011;7726;48.820;9.248;2023-06-14T09:01:08;4.28;;;3.80;;
15246;SDS011;7726;48.820;9.248;2023-06-14T09:03:39;4.78;;;3.40;;
15246;SDS011;7726;48.820;9.248;2023-06-14T09:06:07;4.57;;;3.70;;
15246;SDS011;7726;48.820;9.248;2023-06-14T09:08:40;5.72;;;3.63;;
15246;SDS011;7726;48.820;9.248;2023-06-14T09:11:07;4.53;;;3.75;;
15246;SDS011;7726;48.820;9.248;2023-06-14T09:13:35;5.22;;;3.75;;
15246;SDS011;7726;48.820;9.248;2023-06-14T09:16:02;4.30;;;3.58;;
15246;SDS011;7726;48.820;9.248;2023-06-14T09:18:34;4.05;;;3.58;;
15246;SDS011;7726;48.820;9.248;2023-06-14T09:21:01;4.40;;;4.00;;
15246;SDS011;7726;48.820;9.248;2023-06-14T09:23:28;4.70;;;3.45;;
15246;SDS011;7726;48.820;9.248;2023-06-14T09:25:57;4.38;;;3.67;;
15246;SDS011;7726;48.820;9.248;2023-06-14T09:28:26;4.18;;;3.88;;
15246;SDS011;7726;48.820;9.248;2023-06-14T09:30:54;4.03;;;3.72;;
15246;SDS011;7726;48.820;9.248;2023-06-14T09:33:21;5.55;;;3.80;;
15246;SDS011;7726;48.820;9.248;2023-06-14T09:35:50;3.90;;;3.50;;
15246;SDS011;7726;48.820;9.248;2023-06-14T09:38:18;4.57;;;3.80;;
15246;SDS011;7726;48.820;9.248;2023-06-14T09:40:45;4.10;;;3.70;;
15246;SDS011;7726;48.820;9.248;2023-06-14T09:43:13;5.05;;;3.40;;
15246;SDS011;7726;48.820;9.248;2023-06-14T09:45:41;5.22;;;3.45;;
15246;SDS011;7726;48.820;9.248;2023-06-14T09:48:10;7.75;;;3.72;;
15246;SDS011;7726;48.820;9.248;2023-06-14T09:50:42;5.80;;;4.10;;
15246;SDS011;7726;48.820;9.248;2023-06-14T09:53:10;3.67;;;3.38;;
15246;SDS011;7726;48.820;9.248;2023-06-14T09:55:37;4.20;;;3.80;;
15246;SDS011;7726;48.820;9.248;2023-06-14T09:58:06;3.60;;;3.30;;
15246;SDS011;7726;48.820;9.248;2023-06-14T10:00:35;4.05;;;3.65;;
15246;SDS011;7726;48.820;9.248;2023-06-14T10:03:03;5.13;;;3.30;;
15246;SDS011;7726;48.820;9.248;2023-06-14T10:05:32;5.05;;;3.25;;
15246;SDS011;7726;48.820;9.248;2023-06-14T10:08:03;5.53;;;3.00;;
15246;SDS011;7726;48.820;9.248;2023-06-14T10:10:31;6.07;;;3.25;;
15246;SDS011;7726;48.820;9.248;2023-06-14T10:12:58;5.15;;;3.42;;
15246;SDS011;7726;48.820;9.248;2023-06-14T10:15:28;5.05;;;3.45;;
15246;SDS011;7726;48.820;9.248;2023-06-14T10:18:00;7.97;;;3.45;;
15246;SDS011;7726;48.820;9.248;2023-06-14T10:20:28;6.15;;;3.90;;
15246;SDS011;7726;48.820;9.248;2023-06-14T10:22:58;4.85;;;3.92;;
15246;SDS011;7726;48.820;9.248;2023-06-14T10:25:27;6.07;;;3.25;;
15246;SDS011;7726;48.820;9.248;2023-06-14T10:28:14;6.10;;;3.55;;
15246;SDS011;7726;48.820;9.248;2023-06-14T10:33:25;3.75;;;3.47;;
15246;SDS011;7726;48.820;9.248;2023-06-14T10:36:06;3.47;;;3.15;;
15246;SDS011;7726;48.820;9.248;2023-06-14T10:38:33;5.93;;;3.60;;
15246;SDS011;7726;48.820;9.248;2023-06-14T10:41:01;3.85;;;3.45;;
15246;SDS011;7726;48.820;9.248;2023-06-14T10:43:28;4.25;;;3.30;;
15246;SDS011;7726;48.820;9.248;2023-06-14T10:46:12;5.53;;;3.80;;
15246;SDS011;7726;48.820;9.248;2023-06-14T10:48:41;3.80;;;3.50;;
15246;SDS011;7726;48.820;9.248;2023-06-14T10:51:14;3.42;;;3.10;;
15246;SDS011;7726;48.820;9.248;2023-06-14T10:53:45;4.85;;;3.53;;
15246;SDS011;7726;48.820;9.248;2023-06-14T10:56:22;3.80;;;3.50;;
15246;SDS011;7726;48.820;9.248;2023-06-14T10:58:51;4.20;;;3.70;;
15246;SDS011;7726;48.820;9.248;2023-06-14T11:01:19;6.32;;;3.33;;
15246;SDS011;7726;48.820;9.248;2023-06-14T11:03:51;3.58;;;3.28;;
15246;SDS011;7726;48.820;9.248;2023-06-14T11:06:21;4.80;;;3.80;;
15246;SDS011;7726;48.820;9.248;2023-06-14T11:11:37;6.18;;;3.45;;
15246;SDS011;7726;48.820;9.248;2023-06-14T11:14:04;7.05;;;3.60;;
15246;SDS011;7726;48.820;9.248;2023-06-14T11:16:32;4.05;;;3.58;;
15246;SDS011;7726;48.820;9.248;2023-06-14T11:19:01;3.40;;;3.10;;
15246;SDS011;7726;48.820;9.248;2023-06-14T11:21:29;3.80;;;3.50;;
15246;SDS011;7726;48.820;9.248;2023-06-14T11:23:59;5.47;;;3.63;;
15246;SDS011;7726;48.820;9.248;2023-06-14T11:26:26;4.03;;;3.58;;
15246;SDS011;7726;48.820;9.248;2023-06-14T11:28:56;4.38;;;3.50;;
15246;SDS011;7726;48.820;9.248;2023-06-14T11:31:24;3.28;;;2.92;;
15246;SDS011;7726;48.820;9.248;2023-06-14T11:33:53;3.58;;;3.28;;
15246;SDS011;7726;48.820;9.248;2023-06-14T11:36:23;4.90;;;3.78;;
15246;SDS011;7726;48.820;9.248;2023-06-14T11:38:57;3.30;;;3.00;;
15246;SDS011;7726;48.820;9.248;2023-06-14T11:41:24;4.05;;;3.42;;
15246;SDS011;7726;48.820;9.248;2023-06-14T11:56:08;4.78;;;3.70;;
15246;SDS011;7726;48.820;9.248;2023-06-14T11:58:35;2.90;;;2.65;;
15246;SDS011;7726;48.820;9.248;2023-06-14T12:01:03;3.45;;;3.17;;
15246;SDS011;7726;48.820;9.248;2023-06-14T12:03:30;4.05;;;3.65;;
15246;SDS011;7726;48.820;9.248;2023-06-14T12:06:04;5.68;;;3.65;;
15246;SDS011;7726;48.820;9.248;2023-06-14T12:08:32;4.68;;;3.78;;
15246;SDS011;7726;48.820;9.248;2023-06-14T12:11:04;4.82;;;3.10;;
15246;SDS011;7726;48.820;9.248;2023-06-14T12:13:34;3.38;;;2.97;;
15246;SDS011;7726;48.820;9.248;2023-06-14T12:16:01;5.47;;;3.42;;
15246;SDS011;7726;48.820;9.248;2023-06-14T12:18:33;3.70;;;3.10;;
15246;SDS011;7726;48.820;9.248;2023-06-14T12:21:00;3.60;;;3.25;;
15246;SDS011;7726;48.820;9.248;2023-06-14T12:23:38;4.80;;;3.25;;
15246;SDS011;7726;48.820;9.248;2023-06-14T12:26:05;4.60;;;3.30;;
15246;SDS011;7726;48.820;9.248;2023-06-14T12:28:34;4.85;;;3.50;;
15246;SDS011;7726;48.820;9.248;2023-06-14T12:31:01;5.25;;;3.53;;
15246;SDS011;7726;48.820;9.248;2023-06-14T12:33:28;5.55;;;3.10;;
15246;SDS011;7726;48.820;9.248;2023-06-14T12:35:55;3.30;;;3.00;;
15246;SDS011;7726;48.820;9.248;2023-06-14T12:38:25;4.00;;;3.00;;
15246;SDS011;7726;48.820;9.248;2023-06-14T12:40:52;4.63;;;3.10;;
15246;SDS011;7726;48.820;9.248;2023-06-14T12:43:22;5.40;;;3.50;;
15246;SDS011;7726;48.820;9.248;2023-06-14T12:45:50;4.35;;;3.40;;
15246;SDS011;7726;48.820;9.248;2023-06-14T12:48:17;3.92;;;3.60;;
15246;SDS011;7726;48.820;9.248;2023-06-14T12:50:44;3.58;;;3.28;;
15246;SDS011;7726;48.820;9.248;2023-06-14T12:53:12;4.35;;;3.42;;
15246;SDS011;7726;48.820;9.248;2023-06-14T12:55:39;8.15;;;3.47;;
15246;SDS011;7726;48.820;9.248;2023-06-14T12:58:06;3.53;;;3.10;;
15246;SDS011;7726;48.820;9.248;2023-06-14T13:00:33;3.58;;;3.17;;
15246;SDS011;7726;48.820;9.248;2023-06-14T13:03:02;3.97;;;3.30;;
15246;SDS011;7726;48.820;9.248;2023-06-14T13:05:30;3.67;;;3.35;;
15246;SDS011;7726;48.820;9.248;2023-06-14T13:07:58;3.78;;;3.28;;
15246;SDS011;7726;48.820;9.248;2023-06-14T13:10:25;3.67;;;3.38;;
15246;SDS011;7726;48.820;9.248;2023-06-14T13:12:53;4.05;;;3.00;;
15246;SDS011;7726;48.820;9.248;2023-06-14T13:15:20;5.35;;;3.20;;
15246;SDS011;7726;48.820;9.248;2023-06-14T13:17:47;4.00;;;3.35;;
15246;SDS011;7726;48.820;9.248;2023-06-14T13:20:15;5.63;;;3.13;;
15246;SDS011;7726;48.820;9.248;2023-06-14T13:22:43;4.43;;;3.78;;
15246;SDS011;7726;48.820;9.248;2023-06-14T13:25:10;3.50;;;3.13;;
15246;SDS011;7726;48.820;9.248;2023-06-14T13:27:37;4.03;;;3.20;;
15246;SDS011;7726;48.820;9.248;2023-06-14T13:30:05;3.75;;;3.28;;
15246;SDS011;7726;48.820;9.248;2023-06-14T13:32:32;3.47;;;3.17;;
15246;SDS011;7726;48.820;9.248;2023-06-14T13:34:59;3.47;;;3.22;;
15246;SDS011;7726;48.820;9.248;2023-06-14T13:37:28;6.05;;;3.63;;
15246;SDS011;7726;48.820;9.248;2023-06-14T13:39:55;5.28;;;3.65;;
15246;SDS011;7726;48.820;9.248;2023-06-14T13:42:22;6.03;;;3.70;;
15246;SDS011;7726;48.820;9.248;2023-06-14T13:44:49;5.22;;;3.65;;
15246;SDS011;7726;48.820;9.248;2023-06-14T13:47:17;3.50;;;3.20;;
15246;SDS011;7726;48.820;9.248;2023-06-14T13:49:47;5.40;;;3.30;;
15246;SDS011;7726;48.820;9.248;2023-06-14T13:52:14;3.63;;;3.05;;
15246;SDS011;7726;48.820;9.248;2023-06-14T13:54:43;5.85;;;3.42;;
15246;SDS011;7726;48.820;9.248;2023-06-14T13:57:10;5.85;;;3.50;;
15246;SDS011;7726;48.820;9.248;2023-06-14T13:59:38;3.58;;;3.28;;
15246;SDS011;7726;48.820;9.248;2023-06-14T14:02:05;3.97;;;3.47;;
15246;SDS011;7726;48.820;9.248;2023-06-14T14:04:33;9.75;;;3.97;;
15246;SDS011;7726;48.820;9.248;2023-06-14T14:07:01;4.30;;;3.88;;
15246;SDS011;7726;48.820;9.248;2023-06-14T14:09:28;4.95;;;3.70;;
15246;SDS011;7726;48.820;9.248;2023-06-14T14:11:57;3.60;;;3.25;;
15246;SDS011;7726;48.820;9.248;2023-06-14T14:14:24;4.90;;;3.58;;
15246;SDS011;7726;48.820;9.248;2023-06-14T14:16:52;4.47;;;3.67;;
15246;SDS011;7726;48.820;9.248;2023-06-14T14:19:19;4.22;;;3.53;;
15246;SDS011;7726;48.820;9.248;2023-06-14T14:21:47;6.15;;;3.83;;
15246;SDS011;7726;48.820;9.248;2023-06-14T14:24:14;3.58;;;3.28;;
15246;SDS011;7726;48.820;9.248;2023-06-14T14:26:41;4.05;;;3.70;;
15246;SDS011;7726;48.820;9.248;2023-06-14T14:29:10;3.67;;;3.22;;
15246;SDS011;7726;48.820;9.248;2023-06-14T14:31:37;3.95;;;3.63;;
15246;SDS011;7726;48.820;9.248;2023-06-14T14:34:04;8.40;;;3.40;;
15246;SDS011;7726;48.820;9.248;2023-06-14T14:36:31;3.72;;;3.40;;
15246;SDS011;7726;48.820;9.248;2023-06-14T14:39:01;3.65;;;3.42;;
15246;SDS011;7726;48.820;9.248;2023-06-14T14:41:28;3.67;;;3.35;;
15246;SDS011;7726;48.820;9.248;2023-06-14T14:43:55;5.43;;;3.40;;
15246;SDS011;7726;48.820;9.248;2023-06-14T14:46:25;3.65;;;3.35;;
15246;SDS011;7726;48.820;9.248;2023-06-14T14:48:52;4.75;;;3.63;;
15246;SDS011;7726;48.820;9.248;2023-06-14T14:51:19;3.42;;;2.80;;
15246;SDS011;7726;48.820;9.248;2023-06-14T14:53:47;3.10;;;2.90;;
15246;SDS011;7726;48.820;9.248;2023-06-14T14:56:14;4.10;;;3.70;;
15246;SDS011;7726;48.820;9.248;2023-06-14T14:58:42;4.03;;;2.97;;
15246;SDS011;7726;48.820;9.248;2023-06-14T15:01:09;4.32;;;3.40;;
15246;SDS011;7726;48.820;9.248;2023-06-14T15:03:38;3.47;;;3.28;;
15246;SDS011;7726;48.820;9.248;2023-06-14T15:06:05;4.05;;;3.67;;
15246;SDS011;7726;48.820;9.248;2023-06-14T15:08:32;3.58;;;3.28;;
15246;SDS011;7726;48.820;9.248;2023-06-14T15:10:59;5.07;;;3.40;;
15246;SDS011;7726;48.820;9.248;2023-06-14T15:13:27;4.90;;;3.47;;
15246;SDS011;7726;48.820;9.248;2023-06-14T15:15:55;3.58;;;3.28;;
15246;SDS011;7726;48.820;9.248;2023-06-14T15:18:22;4.15;;;3.25;;
15246;SDS011;7726;48.820;9.248;2023-06-14T15:20:50;6.20;;;3.33;;
15246;SDS011;7726;48.820;9.248;2023-06-14T15:23:17;5.78;;;3.75;;